createdAt,value
2022-09-23T00:00:43.746Z,100877.63
2022-09-23T00:03:47.315Z,100879.22
2022-09-23T00:06:49.811Z,100877.50
2022-09-23T00:09:52.605Z,100875.88
2022-09-23T00:12:55.526Z,100881.00
2022-09-23T00:16:01.721Z,100878.31
2022-09-23T00:19:04.800Z,100880.84
2022-09-23T00:22:08.851Z,100880.78
2022-09-23T00:25:12.121Z,100876.69
2022-09-23T00:28:14.960Z,100878.16
2022-09-23T00:31:23.761Z,100867.22
2022-09-23T00:34:26.612Z,100879.47
2022-09-23T00:37:29.140Z,100868.41
2022-09-23T00:40:32.614Z,100866.91
2022-09-23T00:43:45.775Z,100862.66
2022-09-23T00:46:48.761Z,100865.38
2022-09-23T00:50:15.536Z,100862.78
2022-09-23T00:53:22.583Z,100867.81
2022-09-23T00:56:25.426Z,100854.31
2022-09-23T00:59:29.176Z,100857.87
2022-09-23T01:02:32.756Z,100862.16
2022-09-23T01:05:36.598Z,100862.16
2022-09-23T01:08:41.911Z,100864.06
2022-09-23T01:11:58.309Z,100866.88
2022-09-23T01:15:28.432Z,100871.37
2022-09-23T01:18:53.288Z,100871.44
2022-09-23T01:22:26.931Z,100874.94
2022-09-23T01:25:52.486Z,100866.00
2022-09-23T01:29:16.690Z,100866.34
2022-09-23T01:32:42.451Z,100861.34
2022-09-23T01:36:10.020Z,100859.78
2022-09-23T01:39:31.541Z,100868.59
2022-09-23T01:42:41.147Z,100868.72
2022-09-23T01:45:46.999Z,100861.00
2022-09-23T01:49:02.288Z,100864.53
2022-09-23T01:52:15.913Z,100850.81
2022-09-23T01:55:30.123Z,100851.81
2022-09-23T01:58:42.689Z,100865.50
2022-09-23T02:01:51.005Z,100855.34
2022-09-23T02:05:00.266Z,100855.44
2022-09-23T02:08:07.803Z,100852.84
2022-09-23T02:11:14.088Z,100852.88
2022-09-23T02:14:30.681Z,100856.31
2022-09-23T02:17:55.676Z,100852.00
2022-09-23T02:21:02.867Z,100844.28
2022-09-23T02:24:12.248Z,100852.22
2022-09-23T02:27:42.309Z,100848.06
2022-09-23T02:30:56.209Z,100852.34
2022-09-23T02:34:25.630Z,100849.75
2022-09-23T02:37:45.444Z,100848.03
2022-09-23T02:41:00.077Z,100840.31
2022-09-23T02:44:14.461Z,100852.34
2022-09-23T02:47:24.167Z,100846.22
2022-09-23T02:50:27.130Z,100859.09
2022-09-23T02:53:35.027Z,100850.53
2022-09-23T02:56:39.096Z,100855.75
2022-09-23T02:59:42.190Z,100851.69
2022-09-23T03:03:15.807Z,100851.66
2022-09-23T03:06:37.286Z,100849.88
2022-09-23T03:09:49.928Z,100851.81
2022-09-23T03:13:01.285Z,100843.41
2022-09-23T03:16:25.916Z,100852.94
2022-09-23T03:19:37.889Z,100851.13
2022-09-23T03:22:49.682Z,100854.56
2022-09-23T03:25:55.934Z,100854.50
2022-09-23T03:29:03.930Z,100851.13
2022-09-23T03:32:08.268Z,100853.72
2022-09-23T03:35:13.183Z,100855.41
2022-09-23T03:38:17.383Z,100851.13
2022-09-23T03:41:29.506Z,100857.22
2022-09-23T03:44:37.864Z,100854.63
2022-09-23T03:47:42.277Z,100852.06
2022-09-23T03:50:44.776Z,100854.72
2022-09-23T03:53:48.291Z,100859.97
2022-09-23T03:56:50.841Z,100854.91
2022-09-23T03:59:53.587Z,100860.19
2022-09-23T04:02:56.789Z,100855.13
2022-09-23T04:05:59.681Z,100851.84
2022-09-23T04:09:02.251Z,100859.59
2022-09-23T04:12:05.783Z,100852.72
2022-09-23T04:15:08.594Z,100859.56
2022-09-23T04:18:11.377Z,100853.50
2022-09-23T04:21:13.865Z,100859.50
2022-09-23T04:24:17.163Z,100854.25
2022-09-23T04:27:19.725Z,100858.38
2022-09-23T04:30:22.487Z,100857.50
2022-09-23T04:33:25.018Z,100860.13
2022-09-23T04:36:29.280Z,100857.53
2022-09-23T04:39:31.887Z,100859.28
2022-09-23T04:42:34.614Z,100864.37
2022-09-23T04:45:37.105Z,100861.72
2022-09-23T04:48:43.792Z,100867.69
2022-09-23T04:51:47.602Z,100873.56
2022-09-23T04:54:50.486Z,100870.19
2022-09-23T04:57:52.986Z,100872.59
2022-09-23T05:01:01.723Z,100875.34
2022-09-23T05:04:11.009Z,100872.84
2022-09-23T05:07:13.973Z,100878.91
2022-09-23T05:10:17.063Z,100871.94
2022-09-23T05:13:19.775Z,100883.91
2022-09-23T05:16:23.473Z,100886.38
2022-09-23T05:19:26.405Z,100886.94
2022-09-23T05:22:30.343Z,100885.06
2022-09-23T05:25:36.366Z,100886.56
2022-09-23T05:28:40.822Z,100891.66
2022-09-23T05:31:43.758Z,100896.69
2022-09-23T05:34:46.347Z,100903.25
2022-09-23T05:37:49.072Z,100901.22
2022-09-23T05:41:12.686Z,100894.09
2022-09-23T05:44:15.440Z,100902.16
2022-09-23T05:47:18.068Z,100904.47
2022-09-23T05:50:20.875Z,100906.00
2022-09-23T05:53:23.431Z,100896.88
2022-09-23T05:56:28.310Z,100905.09
2022-09-23T05:59:30.814Z,100908.22
2022-09-23T06:02:33.625Z,100901.00
2022-09-23T06:05:36.745Z,100905.72
2022-09-23T06:08:39.462Z,100905.16
2022-09-23T06:11:42.447Z,100907.50
2022-09-23T06:14:45.073Z,100898.44
2022-09-23T06:17:50.994Z,100907.56
2022-09-23T06:20:53.673Z,100904.66
2022-09-23T06:24:00.151Z,100913.19
2022-09-23T06:27:02.942Z,100902.25
2022-09-23T06:30:06.785Z,100914.31
2022-09-23T06:33:10.074Z,100913.84
2022-09-23T06:36:22.918Z,100913.28
2022-09-23T06:39:33.295Z,100912.72
2022-09-23T06:42:36.384Z,100913.44
2022-09-23T06:45:38.927Z,100915.56
2022-09-23T06:48:46.159Z,100925.66
2022-09-23T06:51:49.938Z,100920.12
2022-09-23T06:54:52.776Z,100927.50
2022-09-23T06:57:58.054Z,100920.84
2022-09-23T07:01:02.484Z,100923.22
2022-09-23T07:04:05.047Z,100918.84
2022-09-23T07:07:08.264Z,100919.03
2022-09-23T07:10:11.932Z,100921.03
2022-09-23T07:13:16.424Z,100924.69
2022-09-23T07:16:19.150Z,100921.00
2022-09-23T07:19:21.967Z,100920.59
2022-09-23T07:22:25.727Z,100925.88
2022-09-23T07:25:29.233Z,100917.22
2022-09-23T07:28:32.272Z,100927.78
2022-09-23T07:31:39.547Z,100927.53
2022-09-23T07:34:43.304Z,100923.44
2022-09-23T07:37:46.205Z,100918.84
2022-09-23T07:40:49.211Z,100922.53
2022-09-23T07:43:55.353Z,100924.72
2022-09-23T07:46:58.926Z,100915.16
2022-09-23T07:50:02.427Z,100918.25
2022-09-23T07:53:05.885Z,100925.34
2022-09-23T07:56:08.793Z,100922.81
2022-09-23T07:59:18.267Z,100918.25
2022-09-23T08:02:21.238Z,100915.84
2022-09-23T08:05:25.757Z,100920.44
2022-09-23T08:08:28.996Z,100920.47
2022-09-23T08:11:32.872Z,100923.72
2022-09-23T08:14:35.430Z,100909.56
2022-09-23T08:17:38.168Z,100913.19
2022-09-23T08:20:47.900Z,100917.94
2022-09-23T08:23:51.854Z,100914.66
2022-09-23T08:26:54.626Z,100912.81
2022-09-23T08:29:57.380Z,100911.37
2022-09-23T08:33:00.233Z,100903.78
2022-09-23T08:36:03.367Z,100907.19
2022-09-23T08:39:06.958Z,100909.22
2022-09-23T08:42:28.225Z,100902.31
2022-09-23T08:45:30.792Z,100901.28
2022-09-23T08:48:42.404Z,100902.25
2022-09-23T08:51:47.185Z,100904.22
2022-09-23T08:54:55.130Z,100900.94
2022-09-23T08:58:26.659Z,100895.59
2022-09-23T09:01:59.052Z,100893.81
2022-09-23T09:05:07.150Z,100901.97
2022-09-23T09:08:11.165Z,100898.25
2022-09-23T09:11:16.615Z,100899.00
2022-09-23T09:14:25.983Z,100897.00
2022-09-23T09:17:35.211Z,100894.37
2022-09-23T09:21:00.513Z,100900.72
2022-09-23T09:24:08.335Z,100887.87
2022-09-23T09:27:13.415Z,100893.81
2022-09-23T09:30:17.387Z,100890.06
2022-09-23T09:33:28.173Z,100883.53
2022-09-23T09:36:44.318Z,100886.03
2022-09-23T09:39:47.047Z,100880.53
2022-09-23T09:42:50.544Z,100878.31
2022-09-23T09:46:02.074Z,100871.13
2022-09-23T09:49:26.159Z,100869.19
2022-09-23T09:52:29.990Z,100866.81
2022-09-23T09:55:32.483Z,100864.75
2022-09-23T09:58:52.284Z,100859.47
2022-09-23T10:02:30.844Z,100860.53
2022-09-23T10:05:52.281Z,100846.59
2022-09-23T10:09:13.910Z,100848.38
2022-09-23T10:12:19.154Z,100842.12
2022-09-23T10:15:34.648Z,100840.13
2022-09-23T10:18:48.335Z,100842.50
2022-09-23T10:21:56.965Z,100848.72
2022-09-23T10:25:03.928Z,100841.84
2022-09-23T10:28:51.398Z,100841.72
2022-09-23T10:32:28.408Z,100847.19
2022-09-23T10:35:34.364Z,100844.47
2022-09-23T10:38:37.759Z,100840.19
2022-09-23T10:42:11.034Z,100836.28
2022-09-23T10:45:44.666Z,100832.81
2022-09-23T10:49:24.278Z,100831.13
2022-09-23T10:52:55.808Z,100823.13
2022-09-23T10:56:11.442Z,100830.03
2022-09-23T10:59:41.180Z,100822.16
2022-09-23T11:03:02.886Z,100821.16
2022-09-23T11:06:26.152Z,100819.91
2022-09-23T11:10:29.149Z,100814.59
2022-09-23T11:13:43.121Z,100819.00
2022-09-23T11:17:14.825Z,100811.06
2022-09-23T11:20:54.623Z,100806.81
2022-09-23T11:24:28.097Z,100801.19
2022-09-23T11:27:53.644Z,100794.62
2022-09-23T11:31:15.310Z,100792.91
2022-09-23T11:34:51.163Z,100788.47
2022-09-23T11:38:05.144Z,100780.16
2022-09-23T11:41:17.590Z,100784.34
2022-09-23T11:44:28.348Z,100784.34
2022-09-23T11:47:48.177Z,100771.19
2022-09-23T11:51:01.583Z,100768.19
2022-09-23T11:54:20.698Z,100765.00
2022-09-23T11:57:44.705Z,100774.34
2022-09-23T12:01:00.748Z,100771.00
2022-09-23T12:04:31.547Z,100763.34
2022-09-23T12:08:08.186Z,100767.38
2022-09-23T12:11:38.867Z,100765.53
2022-09-23T12:15:14.395Z,100760.66
2022-09-23T12:18:42.209Z,100756.94
2022-09-23T12:22:03.992Z,100752.59
2022-09-23T12:25:46.507Z,100743.78
2022-09-23T12:28:52.847Z,100746.78
2022-09-23T12:31:55.965Z,100744.78
2022-09-23T12:35:00.502Z,100734.78
2022-09-23T12:38:13.432Z,100747.91
2022-09-23T12:41:35.334Z,100731.09
2022-09-23T12:44:41.790Z,100721.63
2022-09-23T12:47:44.448Z,100715.56
2022-09-23T12:50:52.116Z,100720.41
2022-09-23T12:53:56.250Z,100717.91
2022-09-23T12:57:00.773Z,100717.75
2022-09-23T13:00:12.728Z,100709.00
2022-09-23T13:03:34.917Z,100705.31
2022-09-23T13:06:56.593Z,100697.91
2022-09-23T13:10:08.952Z,100699.94
2022-09-23T13:13:29.715Z,100703.28
2022-09-23T13:16:42.042Z,100701.34
2022-09-23T13:19:45.870Z,100699.06
2022-09-23T13:22:48.555Z,100699.56
2022-09-23T13:25:54.417Z,100699.03
2022-09-23T13:28:58.971Z,100697.44
2022-09-23T13:32:01.997Z,100701.28
2022-09-23T13:35:16.592Z,100702.56
2022-09-23T13:38:26.850Z,100692.84
2022-09-23T13:41:29.676Z,100698.31
2022-09-23T13:44:32.322Z,100695.34
2022-09-23T13:47:36.286Z,100685.78
2022-09-23T13:50:42.936Z,100685.25
2022-09-23T13:53:53.189Z,100690.63
2022-09-23T13:56:56.740Z,100680.66
2022-09-23T14:00:11.739Z,100687.44
2022-09-23T14:03:23.586Z,100679.31
2022-09-23T14:06:29.874Z,100689.03
2022-09-23T14:09:35.648Z,100679.53
2022-09-23T14:12:41.311Z,100678.63
2022-09-23T14:15:45.307Z,100680.66
2022-09-23T14:18:51.086Z,100675.94
2022-09-23T14:21:56.003Z,100664.50
2022-09-23T14:24:59.624Z,100665.84
2022-09-23T14:28:02.840Z,100662.94
2022-09-23T14:31:05.569Z,100655.56
2022-09-23T14:34:48.130Z,100659.56
2022-09-23T14:38:12.190Z,100657.22
2022-09-23T14:41:21.822Z,100654.69
2022-09-23T14:44:25.861Z,100656.50
2022-09-23T14:47:29.820Z,100657.37
2022-09-23T14:50:48.499Z,100651.31
2022-09-23T14:53:51.268Z,100647.84
2022-09-23T14:56:54.680Z,100642.00
2022-09-23T15:00:09.746Z,100637.50
2022-09-23T15:03:16.553Z,100645.75
2022-09-23T15:06:22.332Z,100632.66
2022-09-23T15:09:37.781Z,100644.06
2022-09-23T15:12:41.313Z,100638.53
2022-09-23T15:15:44.439Z,100634.75
2022-09-23T15:18:54.870Z,100636.97
2022-09-23T15:21:57.707Z,100637.72
2022-09-23T15:25:18.701Z,100636.97
2022-09-23T15:28:23.757Z,100635.94
2022-09-23T15:31:26.849Z,100626.16
2022-09-23T15:34:30.930Z,100632.34
2022-09-23T15:37:36.282Z,100628.84
2022-09-23T15:40:40.449Z,100625.56
2022-09-23T15:43:44.139Z,100620.91
2022-09-23T15:46:49.853Z,100617.28
2022-09-23T15:49:52.619Z,100617.78
2022-09-23T15:52:55.178Z,100618.50
2022-09-23T15:55:58.700Z,100620.69
2022-09-23T15:59:01.541Z,100625.09
2022-09-23T16:02:14.807Z,100617.28
2022-09-23T16:05:22.115Z,100620.75
2022-09-23T16:08:25.810Z,100628.84
2022-09-23T16:11:34.514Z,100626.38
2022-09-23T16:14:37.165Z,100623.63
2022-09-23T16:17:39.933Z,100624.88
2022-09-23T16:20:47.713Z,100617.16
2022-09-23T16:23:51.486Z,100625.19
2022-09-23T16:26:59.754Z,100623.06
2022-09-23T16:30:02.702Z,100623.56
2022-09-23T16:33:05.603Z,100624.19
2022-09-23T16:36:14.194Z,100623.03
2022-09-23T16:39:16.800Z,100621.34
2022-09-23T16:42:19.605Z,100625.09
2022-09-23T16:45:23.334Z,100629.59
2022-09-23T16:48:26.198Z,100626.38
2022-09-23T16:51:31.212Z,100629.16
2022-09-23T16:54:37.326Z,100629.31
2022-09-23T16:57:40.722Z,100638.69
2022-09-23T17:01:01.944Z,100636.87
2022-09-23T17:04:04.932Z,100635.78
2022-09-23T17:07:07.686Z,100633.37
2022-09-23T17:10:11.898Z,100627.41
2022-09-23T17:13:19.916Z,100627.53
2022-09-23T17:16:28.830Z,100628.66
2022-09-23T17:19:33.828Z,100630.28
2022-09-23T17:22:36.389Z,100629.34
2022-09-23T17:25:39.305Z,100639.59
2022-09-23T17:28:41.852Z,100639.31
2022-09-23T17:31:44.796Z,100645.03
2022-09-23T17:34:47.320Z,100644.91
2022-09-23T17:37:50.077Z,100642.84
2022-09-23T17:40:54.422Z,100649.38
2022-09-23T17:43:58.630Z,100642.34
2022-09-23T17:47:02.233Z,100645.25
2022-09-23T17:50:05.952Z,100642.09
2022-09-23T17:53:08.833Z,100643.66
2022-09-23T17:56:14.807Z,100648.53
2022-09-23T17:59:17.363Z,100649.81
2022-09-23T18:02:22.593Z,100655.53
2022-09-23T18:05:25.533Z,100654.97
2022-09-23T18:08:30.473Z,100645.88
2022-09-23T18:11:35.833Z,100652.41
2022-09-23T18:14:38.363Z,100649.41
2022-09-23T18:17:41.224Z,100657.59
2022-09-23T18:20:43.698Z,100658.66
2022-09-23T18:23:47.220Z,100666.84
2022-09-23T18:26:50.345Z,100661.66
2022-09-23T18:29:53.450Z,100664.31
2022-09-23T18:32:55.933Z,100660.97
2022-09-23T18:36:02.328Z,100654.50
2022-09-23T18:39:05.660Z,100666.66
2022-09-23T18:42:08.460Z,100664.44
2022-09-23T18:45:11.868Z,100669.19
2022-09-23T18:48:33.270Z,100671.28
2022-09-23T18:51:38.550Z,100668.94
2022-09-23T18:54:42.535Z,100678.91
2022-09-23T18:57:47.785Z,100674.16
2022-09-23T19:00:50.948Z,100674.59
2022-09-23T19:03:55.956Z,100679.12
2022-09-23T19:06:58.914Z,100673.38
2022-09-23T19:10:01.536Z,100668.63
2022-09-23T19:13:04.595Z,100678.41
2022-09-23T19:16:09.887Z,100672.53
2022-09-23T19:19:12.722Z,100669.53
2022-09-23T19:22:15.796Z,100669.00
2022-09-23T19:25:18.678Z,100675.34
2022-09-23T19:28:21.754Z,100672.25
2022-09-23T19:31:31.446Z,100674.87
2022-09-23T19:34:35.091Z,100680.78
2022-09-23T19:37:38.315Z,100675.50
2022-09-23T19:40:41.037Z,100669.78
2022-09-23T19:43:44.195Z,100672.75
2022-09-23T19:46:53.615Z,100677.16
2022-09-23T19:49:59.997Z,100668.72
2022-09-23T19:53:04.778Z,100666.44
2022-09-23T19:56:07.686Z,100674.63
2022-09-23T19:59:10.259Z,100679.28
2022-09-23T20:02:14.176Z,100675.03
2022-09-23T20:05:20.258Z,100678.69
2022-09-23T20:08:24.226Z,100678.13
2022-09-23T20:11:28.581Z,100683.41
2022-09-23T20:14:31.502Z,100674.94
2022-09-23T20:17:34.373Z,100670.78
2022-09-23T20:20:37.254Z,100678.66
2022-09-23T20:23:40.476Z,100678.75
2022-09-23T20:27:01.429Z,100668.50
2022-09-23T20:30:04.882Z,100673.88
2022-09-23T20:33:07.581Z,100674.06
2022-09-23T20:36:13.029Z,100676.81
2022-09-23T20:39:15.559Z,100674.75
2022-09-23T20:42:20.314Z,100675.88
2022-09-23T20:45:22.795Z,100676.97
2022-09-23T20:48:25.641Z,100677.84
2022-09-23T20:51:28.093Z,100672.16
2022-09-23T20:54:31.450Z,100679.03
2022-09-23T20:57:33.951Z,100676.38
2022-09-23T21:00:36.769Z,100679.00
2022-09-23T21:03:41.779Z,100668.00
2022-09-23T21:06:44.494Z,100672.50
2022-09-23T21:09:46.970Z,100673.63
2022-09-23T21:12:50.452Z,100673.00
2022-09-23T21:15:52.950Z,100679.22
2022-09-23T21:18:56.027Z,100676.88
2022-09-23T21:21:58.622Z,100677.91
2022-09-23T21:25:27.003Z,100675.59
2022-09-23T21:28:24.049Z,100675.00
2022-09-23T21:31:33.705Z,100679.44
2022-09-23T21:34:36.393Z,100676.00
2022-09-23T21:37:39.152Z,100679.47
2022-09-23T21:40:56.933Z,100682.19
2022-09-23T21:44:00.674Z,100682.16
2022-09-23T21:47:03.229Z,100684.09
2022-09-23T21:50:06.823Z,100688.50
2022-09-23T21:53:09.385Z,100685.06
2022-09-23T21:56:24.376Z,100682.41
2022-09-23T21:59:27.488Z,100683.25
2022-09-23T22:02:30.257Z,100689.44
2022-09-23T22:05:33.074Z,100687.19
2022-09-23T22:08:43.257Z,100688.88
2022-09-23T22:12:05.198Z,100693.12
2022-09-23T22:15:08.263Z,100689.78
2022-09-23T22:18:11.765Z,100681.00
2022-09-23T22:21:14.284Z,100688.09
2022-09-23T22:24:17.197Z,100686.44
2022-09-23T22:27:20.434Z,100680.00
2022-09-23T22:30:42.149Z,100687.16
2022-09-23T22:33:44.686Z,100688.37
2022-09-23T22:36:47.418Z,100688.66
2022-09-23T22:39:49.990Z,100689.53
2022-09-23T22:42:54.285Z,100687.03
2022-09-23T22:45:56.760Z,100684.50
2022-09-23T22:48:59.588Z,100678.41
2022-09-23T22:52:04.070Z,100688.69
2022-09-23T22:55:10.063Z,100686.94
2022-09-23T22:58:31.201Z,100686.06
2022-09-23T23:01:35.662Z,100686.22
2022-09-23T23:04:38.199Z,100684.78
2022-09-23T23:07:41.179Z,100693.47
2022-09-23T23:10:43.889Z,100689.22
2022-09-23T23:13:46.683Z,100685.91
2022-09-23T23:16:49.601Z,100683.38
2022-09-23T23:19:52.427Z,100681.81
2022-09-23T23:22:54.921Z,100684.59
2022-09-23T23:25:57.709Z,100683.78
2022-09-23T23:29:01.626Z,100683.81
2022-09-23T23:32:05.223Z,100689.00
2022-09-23T23:35:08.571Z,100678.75
2022-09-23T23:38:12.488Z,100684.91
2022-09-23T23:41:17.430Z,100678.22
2022-09-23T23:44:20.205Z,100674.16
2022-09-23T23:47:23.948Z,100680.41
2022-09-23T23:50:27.049Z,100679.66
2022-09-23T23:53:31.739Z,100679.03
2022-09-23T23:56:34.584Z,100681.50
2022-09-23T23:59:37.317Z,100679.97
